• Join FlightAware (Why Join?)
  • Login
  • US Flag 
06:39PM EDT


 

Airport Tracker/Info


-or-


 

Live Flight TrackerFlight Track Log ✈ AFL150 ✈ 13-Apr-2014 ✈ UUEE / SVO - MUHA / HAV

Flight Track Log - Related Links

Times and Time Zones

All times are in EDT time to prevent confusion due to time zone crossing. See the AFL150 flight status page for this flight to view local times or setup timezone preferences in your user account.

Time Position Orientation Groundspeed Altitude Reporting Facility
EDT Latitude Longitude Course Direction KTS MPH feet Rate Location/Type
06:28AM 56.1347 36.8923 307° West  Level Estimated
06:29AM 56.2091 36.7105 306° West  Level Estimated
06:30AM 56.2832 36.5279 306° West  Level Estimated
06:31AM 56.3571 36.3447 306° West  Level Estimated
06:32AM 56.4307 36.1608 306° West  Level Estimated
06:33AM 56.5040 35.9761 306° West  Level Estimated
06:34AM 56.5771 35.7907 306° West  Level Estimated
06:35AM 56.6498 35.6046 305° West  Level Estimated
06:36AM 56.7223 35.4178 305° West  Level Estimated
06:37AM 56.7945 35.2303 305° West  Level Estimated
06:38AM 56.8665 35.0421 305° West  Level Estimated
06:39AM 56.9381 34.8531 305° West  Level Estimated
06:40AM 57.0095 34.6634 305° West  Level Estimated
06:41AM 57.0805 34.4730 305° West  Level Estimated
06:42AM 57.1513 34.2818 304° West  Level Estimated
06:43AM 57.2218 34.0899 304° West  Level Estimated
06:44AM 57.2920 33.8973 304° West  Level Estimated
06:45AM 57.3619 33.7040 304° West  Level Estimated
06:46AM 57.4315 33.5099 304° West  Level Estimated
06:47AM 57.5008 33.3150 304° West  Level Estimated
06:48AM 57.5698 33.1195 303° West  Level Estimated
06:49AM 57.6385 32.9232 303° West  Level Estimated
06:50AM 57.7069 32.7261 303° West  Level Estimated
06:51AM 57.7750 32.5283 303° West  Level Estimated
06:52AM 57.8428 32.3298 303° West  Level Estimated
06:53AM 57.9102 32.1305 303° West  Level Estimated
06:54AM 57.9774 31.9305 302° West  Level Estimated
06:55AM 58.0442 31.7297 302° West  Level Estimated
06:56AM 58.1107 31.5282 302° West  Level Estimated
06:57AM 58.1769 31.3259 302° West  Level Estimated
06:58AM 58.2428 31.1228 302° West  Level Estimated
06:59AM 58.3083 30.9190 302° West  Level Estimated
07:00AM 58.3736 30.7145 301° West  Level Estimated
07:01AM 58.4385 30.5092 301° West  Level Estimated
07:02AM 58.5031 30.3031 301° West  Level Estimated
07:03AM 58.5673 30.0963 301° West  Level Estimated
07:04AM 58.6312 29.8887 301° West  Level Estimated
07:05AM 58.6948 29.6804 300° West  Level Estimated
07:06AM 58.7580 29.4713 300° West  Level Estimated
07:07AM 58.8209 29.2614 300° West  Level Estimated
07:08AM 58.8835 29.0508 300° West  Level Estimated
07:09AM 58.9457 28.8394 300° West  Level Estimated
07:10AM 59.0075 28.6273 300° West  Level Estimated
07:11AM 59.0691 28.4144 299° West  Level Estimated
07:12AM 59.1302 28.2007 299° West  Level Estimated
07:13AM 59.1911 27.9863 299° West  Level Estimated
07:14AM 59.2515 27.7711 299° West  Level Estimated
07:15AM 59.3116 27.5552 299° West  Level Estimated
07:16AM 59.3714 27.3385 298° West  Level Estimated
07:17AM 59.4307 27.1210 298° West  Level Estimated
07:18AM 59.4898 26.9028 298° West  Level Estimated
07:19AM 59.5484 26.6838 298° West  Level Estimated
07:20AM 59.6067 26.4640 298° West  Level Estimated
07:21AM 59.6646 26.2435 298° West  Level Estimated
07:22AM 59.7222 26.0222 297° West  Level Estimated
07:23AM 59.7794 25.8001 297° West  Level Estimated
07:24AM 59.8362 25.5773 297° West  Level Estimated
07:25AM 59.8926 25.3538 297° West  Level Estimated
07:26AM 59.9486 25.1294 297° West  Level Estimated
07:27AM 60.0043 24.9044 296° West  Level Estimated
07:28AM 60.0596 24.6785 296° West  Level Estimated
07:28AM 59.9219 26.6879 281° West 442 509 36,000  Level FlightAware ADS-B (EFHN)
07:29AM 60.1145 24.4520 296° West  Level Estimated
07:30AM 60.1690 24.2246 296° West  Level Estimated
07:30AM 60.0188 26.1371 302° West 460 529 36,000  Level FlightAware ADS-B (EFHN)
07:31AM 60.0645 25.9851 301° West 461 531 36,000  Level FlightAware ADS-B (EFHN)
07:32AM 60.1140 25.8207 301° West 458 527 36,000  Level FlightAware ADS-B (EFHN)
07:32AM 60.1498 25.7014 301° West 459 528 36,000  Level FlightAware ADS-B (EFHN)
07:33AM 60.2037 25.5205 301° West 458 527 36,000  Level FlightAware ADS-B (EFHN)
07:34AM 60.2433 25.3865 301° West 459 528 36,000  Level FlightAware ADS-B (EFHN)
07:34AM 60.2796 25.2629 301° West 460 529 36,000  Level FlightAware ADS-B (EFHN)
07:35AM 60.3122 25.1514 300° West 460 529 36,000  Level FlightAware ADS-B (EFHN)
07:35AM 60.3505 25.0209 300° West 461 531 36,000  Level FlightAware ADS-B (EFHN)
07:36AM 60.3877 24.8919 300° West 462 532 36,000  Level FlightAware ADS-B (EFHN)
07:37AM 60.4288 24.7490 300° West 462 532 36,000  Level FlightAware ADS-B (EFHN)
07:37AM 60.4552 24.6567 300° West 463 533 36,000  Level FlightAware ADS-B (EFHN)
07:38AM 60.5457 24.3380 300° West 461 531 36,000  Level FlightAware ADS-B (EFHN)
07:39AM 60.5776 24.2247 300° West 459 528 36,000  Level FlightAware ADS-B (EFHN)
07:39AM 60.6078 24.1163 300° West 458 527 36,000  Level FlightAware ADS-B (EFHN)
07:40AM 60.6526 23.9549 299° West 459 528 36,000  Level FlightAware ADS-B (EFHN)
07:41AM 60.6821 23.8483 299° West 459 528 36,000  Level FlightAware ADS-B (EFHN)
07:41AM 60.7223 23.7022 299° West 460 529 36,000  Level FlightAware ADS-B (EFHN)
07:42AM 60.7649 23.5463 299° West 461 531 36,000  Level FlightAware ADS-B (EFHN)
07:43AM 60.8184 23.3489 299° West 462 532 36,000  Level FlightAware ADS-B (EFHN)
07:45AM 60.9374 22.9035 299° West 461 531 36,000  Level FlightAware ADS-B (EFHN)
07:46AM 61.0103 22.6259 298° West 462 532 36,000  Level FlightAware ADS-B (EFHN)
07:49AM 61.2861 21.9889 315° West 475 547 36,000  Level FlightAware ADS-B (ESKB)
07:52AM 61.2861 21.9889 315° West 477 549 36,000  Level FlightAware ADS-B (ESKB)
07:52AM 61.5940 21.3412 315° West 477 549 36,000  Level FlightAware ADS-B (ESKB)
07:55AM 61.6926 20.8451 293° West  Level Estimated
07:56AM 61.7405 20.6000 292° West  Level Estimated
07:57AM 61.7879 20.3541 292° West  Level Estimated
07:58AM 61.8349 20.1074 292° West  Level Estimated
07:59AM 61.8814 19.8600 292° West  Level Estimated
08:00AM 61.9274 19.6119 292° West  Level Estimated
08:01AM 61.9731 19.3629 291° West  Level Estimated
08:02AM 62.0182 19.1133 291° West  Level Estimated
08:03AM 62.0630 18.8629 291° West  Level Estimated
08:04AM 62.1072 18.6118 291° West  Level Estimated
08:05AM 62.1510 18.3599 291° West  Level Estimated
08:06AM 62.1944 18.1074 290° West  Level Estimated
08:07AM 62.2373 17.8541 290° West  Level Estimated
08:08AM 62.2797 17.6000 290° West  Level Estimated
08:09AM 62.3217 17.3453 290° West  Level Estimated
08:10AM 62.3632 17.0899 289° West  Level Estimated
08:11AM 62.4042 16.8337 289° West  Level Estimated
08:12AM 62.4448 16.5769 289° West  Level Estimated
08:13AM 62.4849 16.3194 289° West  Level Estimated
08:14AM 62.5244 16.0611 288° West  Level Estimated
08:15AM 62.5636 15.8022 288° West  Level Estimated
08:16AM 62.6022 15.5427 288° West  Level Estimated
08:17AM 62.6404 15.2824 288° West  Level Estimated
08:18AM 62.6781 15.0215 288° West  Level Estimated
08:19AM 62.7153 14.7599 287° West  Level Estimated
08:20AM 62.7520 14.4976 287° West  Level Estimated
08:21AM 62.7882 14.2348 287° West  Level Estimated
08:22AM 62.8240 13.9712 287° West  Level Estimated
08:23AM 62.8592 13.7071 286° West  Level Estimated
08:24AM 62.8939 13.4423 286° West  Level Estimated
08:25AM 62.9282 13.1768 286° West  Level Estimated
08:26AM 62.9619 12.9108 286° West  Level Estimated
08:27AM 62.9952 12.6441 285° West  Level Estimated
08:28AM 63.0279 12.3769 285° West  Level Estimated
08:29AM 63.0601 12.1090 285° West  Level Estimated
08:30AM 63.0919 11.8406 285° West  Level Estimated
08:31AM 63.1231 11.5716 285° West  Level Estimated
08:32AM 63.1538 11.3020 284° West  Level Estimated
08:33AM 63.1840 11.0318 284° West  Level Estimated
08:34AM 63.2137 10.7611 284° West  Level Estimated
08:35AM 63.2428 10.4899 284° West  Level Estimated
08:36AM 63.2715 10.2180 283° West  Level Estimated
08:37AM 63.2996 9.9457 283° West  Level Estimated
08:38AM 63.3272 9.6728 283° West  Level Estimated
08:39AM 63.3543 9.3994 283° West  Level Estimated
08:40AM 63.3809 9.1255 282° West  Level Estimated
08:41AM 63.4069 8.8511 282° West  Level Estimated
08:42AM 63.4324 8.5762 282° West  Level Estimated
08:43AM 63.4574 8.3008 282° West  Level Estimated
08:44AM 63.4818 8.0250 281° West  Level Estimated
08:45AM 63.5058 7.7486 281° West  Level Estimated
08:46AM 63.5292 7.4718 281° West  Level Estimated
08:47AM 63.5520 7.1946 281° West  Level Estimated
08:48AM 63.5743 6.9169 280° West  Level Estimated
08:49AM 63.5961 6.6388 280° West  Level Estimated
08:50AM 63.6174 6.3603 280° West  Level Estimated
08:51AM 63.6381 6.0813 280° West  Level Estimated
08:52AM 63.6582 5.8020 279° West  Level Estimated
08:53AM 63.6778 5.5223 279° West  Level Estimated
08:54AM 63.6969 5.2421 279° West  Level Estimated
08:55AM 63.7154 4.9617 279° West  Level Estimated
08:56AM 63.7334 4.6808 278° West  Level Estimated
08:57AM 63.7509 4.3996 278° West  Level Estimated
08:58AM 63.7677 4.1181 278° West  Level Estimated
08:59AM 63.7841 3.8362 278° West  Level Estimated
09:00AM 63.7999 3.5540 277° West  Level Estimated
09:01AM 63.8151 3.2715 277° West  Level Estimated
09:02AM 63.8298 2.9887 277° West  Level Estimated
09:03AM 63.8439 2.7056 277° West  Level Estimated
09:04AM 63.8575 2.4222 276° West  Level Estimated
09:05AM 63.8705 2.1386 276° West  Level Estimated
09:06AM 63.8830 1.8547 276° West  Level Estimated
09:07AM 63.8949 1.5705 276° West  Level Estimated
09:08AM 63.9063 1.2861 275° West  Level Estimated
09:09AM 63.9171 1.0015 275° West  Level Estimated
09:10AM 63.9273 0.7167 275° West  Level Estimated
09:11AM 63.9370 0.4317 275° West  Level Estimated
09:12AM 63.9461 0.1465 274° West  Level Estimated
09:13AM 63.9547 -0.1389 274° West  Level Estimated
09:14AM 63.9627 -0.4245 274° West  Level Estimated
09:15AM 63.9701 -0.7102 274° West  Level Estimated
09:16AM 63.9770 -0.9961 273° West  Level Estimated
09:17AM 63.9833 -1.2821 273° West  Level Estimated
09:18AM 63.9890 -1.5682 273° West  Level Estimated
09:19AM 63.9942 -1.8545 272° West  Level Estimated
09:20AM 63.9988 -2.1408 272° West  Level Estimated
09:21AM 64.0029 -2.4272 272° West  Level Estimated
09:22AM 64.0064 -2.7137 272° West  Level Estimated
09:23AM 64.0093 -3.0003 271° West  Level Estimated
09:24AM 64.0117 -3.2869 271° West  Level Estimated
09:25AM 64.0135 -3.5736 271° West  Level Estimated
09:26AM 64.0147 -3.8603 271° West  Level Estimated
09:27AM 64.0154 -4.1470 270° West  Level Estimated
09:28AM 64.0155 -4.4337 270° West  Level Estimated
09:29AM 64.0150 -4.7205 270° West  Level Estimated
09:30AM 64.0140 -5.0072 270° West  Level Estimated
09:31AM 64.0124 -5.2938 269° West  Level Estimated
09:32AM 64.0102 -5.5805 269° West  Level Estimated
09:33AM 64.0075 -5.8671 269° West  Level Estimated
09:34AM 64.0042 -6.1536 269° West  Level Estimated
09:35AM 64.0004 -6.4401 268° West  Level Estimated
09:36AM 63.9960 -6.7264 268° West  Level Estimated
09:37AM 63.9910 -7.0127 268° West  Level Estimated
09:38AM 63.9855 -7.2989 268° West  Level Estimated
09:39AM 63.9794 -7.5849 267° West  Level Estimated
09:40AM 63.9727 -7.8709 267° West  Level Estimated
09:41AM 63.9655 -8.1566 267° West  Level Estimated
09:42AM 63.9577 -8.4423 267° West  Level Estimated
09:43AM 63.9493 -8.7277 266° West  Level Estimated
09:44AM 63.9404 -9.0130 266° West  Level Estimated
09:45AM 63.9309 -9.2981 266° West  Level Estimated
09:46AM 63.9209 -9.5830 266° West  Level Estimated
09:47AM 63.9103 -9.8677 265° West  Level Estimated
09:48AM 63.8991 -10.1521 265° West  Level Estimated
09:49AM 63.8874 -10.4364 265° West  Level Estimated
09:50AM 63.8752 -10.7204 265° West  Level Estimated
09:51AM 63.8623 -11.0041 264° West  Level Estimated
09:52AM 63.8490 -11.2876 264° West  Level Estimated
09:53AM 63.8350 -11.5708 264° West  Level Estimated
09:54AM 63.8205 -11.8537 264° West  Level Estimated
09:55AM 63.8055 -12.1363 263° West  Level Estimated
09:56AM 63.7899 -12.4186 263° West  Level Estimated
09:57AM 63.7738 -12.7006 263° West  Level Estimated
09:58AM 63.7571 -12.9823 262° West  Level Estimated
09:59AM 63.7399 -13.2636 262° West  Level Estimated
10:00AM 63.7221 -13.5446 262° West  Level Estimated
10:01AM 63.7037 -13.8252 262° West  Level Estimated
10:02AM 63.6849 -14.1055 261° West  Level Estimated
10:03AM 63.6655 -14.3853 261° West  Level Estimated
10:04AM 63.6455 -14.6648 261° West  Level Estimated
10:05AM 63.6250 -14.9439 261° West  Level Estimated
10:06AM 63.6039 -15.2226 260° West  Level Estimated
10:07AM 63.5824 -15.5008 260° West  Level Estimated
10:08AM 63.5602 -15.7787 260° West  Level Estimated
10:09AM 63.5376 -16.0561 260° West  Level Estimated
10:10AM 63.5144 -16.3330 259° West  Level Estimated
10:11AM 63.4907 -16.6095 259° West  Level Estimated
10:12AM 63.4664 -16.8856 259° West  Level Estimated
10:13AM 63.4416 -17.1611 259° West  Level Estimated
10:14AM 63.4163 -17.4362 258° West  Level Estimated
10:15AM 63.3904 -17.7108 258° West  Level Estimated
10:16AM 63.3641 -17.9849 258° West  Level Estimated
10:17AM 63.3372 -18.2585 258° West  Level Estimated
10:18AM 63.3098 -18.5315 258° West  Level Estimated
10:19AM 63.2818 -18.8041 257° West  Level Estimated
10:20AM 63.2534 -19.0761 257° West  Level Estimated
10:21AM 63.2244 -19.3476 257° West  Level Estimated
10:22AM 63.1949 -19.6185 257° West  Level Estimated
10:23AM 63.1649 -19.8889 256° West  Level Estimated
10:24AM 63.1343 -20.1587 256° West  Level Estimated
10:25AM 63.1033 -20.4279 256° West  Level Estimated
10:26AM 63.0718 -20.6965 256° West  Level Estimated
10:27AM 63.0397 -20.9646 255° West  Level Estimated
10:28AM 63.0072 -21.2321 255° West  Level Estimated
10:29AM 62.9741 -21.4989 255° West  Level Estimated
10:30AM 62.9406 -21.7652 255° West  Level Estimated
10:31AM 62.9065 -22.0308 254° West  Level Estimated
10:32AM 62.8719 -22.2959 254° West  Level Estimated
10:33AM 62.8369 -22.5603 254° West  Level Estimated
10:34AM 62.8013 -22.8240 254° West  Level Estimated
10:35AM 62.7653 -23.0872 253° West  Level Estimated
10:36AM 62.7288 -23.3496 253° West  Level Estimated
10:37AM 62.6917 -23.6115 253° West  Level Estimated
10:38AM 62.6542 -23.8726 253° West  Level Estimated
10:39AM 62.6162 -24.1331 253° West  Level Estimated
10:40AM 62.5778 -24.3930 252° West  Level Estimated
10:41AM 62.5388 -24.6521 252° West  Level Estimated
10:42AM 62.4994 -24.9106 252° West  Level Estimated
10:43AM 62.4595 -25.1684 252° West  Level Estimated
10:44AM 62.4191 -25.4255 251° West  Level Estimated
10:45AM 62.3782 -25.6819 251° West  Level Estimated
10:46AM 62.3369 -25.9376 251° West  Level Estimated
10:47AM 62.2951 -26.1926 251° West  Level Estimated
10:48AM 62.2528 -26.4468 250° West  Level Estimated
10:49AM 62.2101 -26.7004 250° West  Level Estimated
10:50AM 62.1669 -26.9533 250° West  Level Estimated
10:51AM 62.1233 -27.2054 250° West  Level Estimated
10:52AM 62.0792 -27.4568 250° West  Level Estimated
10:53AM 62.0346 -27.7074 249° West  Level Estimated
10:54AM 61.9896 -27.9573 249° West  Level Estimated
10:55AM 61.9442 -28.2065 249° West  Level Estimated
10:56AM 61.8983 -28.4549 249° West  Level Estimated
10:57AM 61.8519 -28.7026 248° West  Level Estimated
10:58AM 61.8051 -28.9496 248° West  Level Estimated
10:59AM 61.7579 -29.1957 248° West  Level Estimated
11:00AM 61.7102 -29.4412 248° West  Level Estimated
11:01AM 61.6621 -29.6858 248° West  Level Estimated
11:02AM 61.6135 -29.9297 247° West  Level Estimated
11:03AM 61.5645 -30.1728 247° West  Level Estimated
11:04AM 61.5151 -30.4152 247° West  Level Estimated
11:05AM 61.4653 -30.6568 247° West  Level Estimated
11:06AM 61.4150 -30.8976 247° West  Level Estimated
11:07AM 61.3643 -31.1376 246° West  Level Estimated
11:08AM 61.3132 -31.3769 246° West  Level Estimated
11:09AM 61.2616 -31.6154 246° West  Level Estimated
11:10AM 61.2097 -31.8530 246° West  Level Estimated
11:11AM 61.1573 -32.0899 245° Southwest  Level Estimated
11:12AM 61.1045 -32.3260 245° Southwest  Level Estimated
11:13AM 61.0513 -32.5614 245° Southwest  Level Estimated
11:14AM 60.9977 -32.7959 245° Southwest  Level Estimated
11:15AM 60.9437 -33.0296 245° Southwest  Level Estimated
11:16AM 60.8893 -33.2626 244° Southwest  Level Estimated
11:17AM 60.8345 -33.4947 244° Southwest  Level Estimated
11:18AM 60.7793 -33.7261 244° Southwest  Level Estimated
11:19AM 60.7237 -33.9566 244° Southwest  Level Estimated
11:20AM 60.6677 -34.1864 244° Southwest  Level Estimated
11:21AM 60.6113 -34.4153 243° Southwest  Level Estimated
11:22AM 60.5546 -34.6435 243° Southwest  Level Estimated
11:23AM 60.4974 -34.8708 243° Southwest  Level Estimated
11:24AM 60.4398 -35.0974 243° Southwest  Level Estimated
11:25AM 60.3819 -35.3231 243° Southwest  Level Estimated
11:26AM 60.3236 -35.5480 242° Southwest  Level Estimated
11:27AM 60.2649 -35.7722 242° Southwest  Level Estimated
11:28AM 60.2058 -35.9955 242° Southwest  Level Estimated
11:29AM 60.1464 -36.2180 242° Southwest  Level Estimated
11:30AM 60.0865 -36.4398 242° Southwest  Level Estimated
11:31AM 60.0264 -36.6607 241° Southwest  Level Estimated
11:32AM 59.9658 -36.8808 241° Southwest  Level Estimated
11:33AM 59.9049 -37.1001 241° Southwest  Level Estimated
11:34AM 59.8436 -37.3186 241° Southwest  Level Estimated
11:35AM 59.7820 -37.5362 241° Southwest  Level Estimated
11:36AM 59.7200 -37.7531 241° Southwest  Level Estimated
11:37AM 59.6576 -37.9692 240° Southwest  Level Estimated
11:38AM 59.5949 -38.1845 240° Southwest  Level Estimated
11:39AM 59.5318 -38.3989 240° Southwest  Level Estimated
11:40AM 59.4684 -38.6126 240° Southwest  Level Estimated
11:41AM 59.4047 -38.8255 240° Southwest  Level Estimated
11:42AM 59.3405 -39.0375 239° Southwest  Level Estimated
11:43AM 59.2761 -39.2488 239° Southwest  Level Estimated
11:44AM 59.2113 -39.4593 239° Southwest  Level Estimated
11:45AM 59.1462 -39.6689 239° Southwest  Level Estimated
11:46AM 59.0807 -39.8778 239° Southwest  Level Estimated
11:47AM 59.0149 -40.0858 239° Southwest  Level Estimated
11:48AM 58.9488 -40.2931 238° Southwest  Level Estimated
11:49AM 58.8823 -40.4996 238° Southwest  Level Estimated
11:50AM 58.8155 -40.7053 238° Southwest  Level Estimated
11:51AM 58.7484 -40.9102 238° Southwest  Level Estimated
11:52AM 58.6810 -41.1143 238° Southwest  Level Estimated
11:53AM 58.6132 -41.3176 237° Southwest  Level Estimated
11:54AM 58.5452 -41.5201 237° Southwest  Level Estimated
11:55AM 58.4767 -41.7218 237° Southwest  Level Estimated
11:56AM 58.4080 -41.9228 237° Southwest  Level Estimated
11:57AM 58.3390 -42.1229 237° Southwest  Level Estimated
11:58AM 58.2697 -42.3223 237° Southwest  Level Estimated
11:59AM 58.2000 -42.5209 236° Southwest  Level Estimated
12:00PM 58.1301 -42.7187 236° Southwest  Level Estimated
12:01PM 58.0598 -42.9158 236° Southwest  Level Estimated
12:02PM 57.9893 -43.1120 236° Southwest  Level Estimated
12:03PM 57.9184 -43.3075 236° Southwest  Level Estimated
12:04PM 57.8472 -43.5022 236° Southwest  Level Estimated
12:05PM 57.7758 -43.6962 235° Southwest  Level Estimated
12:06PM 57.7040 -43.8894 235° Southwest  Level Estimated
12:07PM 57.6320 -44.0818 235° Southwest  Level Estimated
12:08PM 57.5597 -44.2734 235° Southwest  Level Estimated
12:09PM 57.4870 -44.4644 235° Southwest  Level Estimated
12:10PM 57.4141 -44.6545 235° Southwest  Level Estimated
12:11PM 57.3409 -44.8439 234° Southwest  Level Estimated
12:12PM 57.2674 -45.0325 234° Southwest  Level Estimated
12:13PM 57.1937 -45.2203 234° Southwest  Level Estimated
12:14PM 57.1196 -45.4075 234° Southwest  Level Estimated
12:15PM 57.0453 -45.5938 234° Southwest  Level Estimated
12:16PM 56.9707 -45.7795 234° Southwest  Level Estimated
12:17PM 56.8958 -45.9644 233° Southwest  Level Estimated
12:18PM 56.8207 -46.1485 233° Southwest  Level Estimated
12:19PM 56.7453 -46.3319 233° Southwest  Level Estimated
12:20PM 56.6696 -46.5146 233° Southwest  Level Estimated
12:21PM 56.5937 -46.6965 233° Southwest  Level Estimated
12:22PM 56.5175 -46.8777 233° Southwest  Level Estimated
12:23PM 56.4410 -47.0582 233° Southwest  Level Estimated
12:24PM 56.3643 -47.2379 232° Southwest  Level Estimated
12:25PM 56.2873 -47.4170 232° Southwest  Level Estimated
12:26PM 56.2100 -47.5953 232° Southwest  Level Estimated
12:27PM 56.1325 -47.7729 232° Southwest  Level Estimated
12:28PM 56.0547 -47.9497 232° Southwest  Level Estimated
12:29PM 55.9767 -48.1259 232° Southwest  Level Estimated
12:30PM 55.8985 -48.3013 232° Southwest  Level Estimated
12:31PM 55.8200 -48.4761 231° Southwest  Level Estimated
12:32PM 55.7412 -48.6501 231° Southwest  Level Estimated
12:33PM 55.6622 -48.8234 231° Southwest  Level Estimated
12:34PM 55.5830 -48.9961 231° Southwest  Level Estimated
12:35PM 55.5035 -49.1680 231° Southwest  Level Estimated
12:36PM 55.4238 -49.3392 231° Southwest  Level Estimated
12:37PM 55.3438 -49.5098 231° Southwest  Level Estimated
12:38PM 55.2636 -49.6797 230° Southwest  Level Estimated
12:39PM 55.1832 -49.8488 230° Southwest  Level Estimated
12:40PM 55.1025 -50.0173 230° Southwest  Level Estimated
12:41PM 55.0216 -50.1852 230° Southwest  Level Estimated
12:42PM 54.9405 -50.3523 230° Southwest  Level Estimated
12:43PM 54.8591 -50.5187 230° Southwest  Level Estimated
12:44PM 54.7775 -50.6846 230° Southwest  Level Estimated
12:45PM 54.6957 -50.8497 229° Southwest  Level Estimated
12:46PM 54.6167 -51.0081 229° Southwest  Level Estimated
12:47PM 54.5375 -51.1659 229° Southwest  Level Estimated
12:48PM 54.4581 -51.3231 229° Southwest  Level Estimated
12:49PM 54.3785 -51.4796 229° Southwest  Level Estimated
12:50PM 54.2987 -51.6356 229° Southwest  Level Estimated
12:51PM 54.2187 -51.7909 229° Southwest  Level Estimated
12:52PM 54.1385 -51.9456 229° Southwest  Level Estimated
12:53PM 54.0580 -52.0998 228° Southwest  Level Estimated
12:53PM 59.5000 -56.7500 228° Southwest 440 506 37,000  Level Gander Center
12:54PM 53.9774 -52.2533 228° Southwest  Level Estimated
12:54PM 59.4000 -56.9333 223° Southwest 440 506 37,000  Level Gander Center
12:55PM 53.8966 -52.4062 228° Southwest  Level Estimated
12:55PM 59.3000 -57.0667 214° Southwest 440 506 37,000  Level Gander Center
12:56PM 53.8157 -52.5586 228° Southwest  Level Estimated
12:57PM 53.7345 -52.7104 228° Southwest  Level Estimated
12:57PM 59.1000 -57.3333 214° Southwest 440 506 37,000  Level Gander Center
12:58PM 53.6531 -52.8616 228° Southwest  Level Estimated
12:58PM 59.0000 -57.4667 214° Southwest 450 518 37,000  Level Gander Center
12:59PM 58.8833 -57.6000 211° Southwest 440 506 37,000  Level Gander Center
01:00PM 58.7833 -57.7500 218° Southwest 440 506 37,000  Level Gander Center
01:01PM 58.7000 -57.8833 220° Southwest 450 518 37,000  Level Gander Center
01:02PM 58.5833 -57.9833 204° Southwest 450 518 37,000  Level Gander Center
01:03PM 58.4833 -58.1333 218° Southwest 440 506 37,000  Level Gander Center
01:04PM 58.3833 -58.2667 215° Southwest 440 506 37,000  Level Gander Center
01:05PM 58.2667 -58.4000 211° Southwest 440 506 37,000  Level Gander Center
01:06PM 58.1667 -58.5000 208° Southwest 440 506 37,000  Level Gander Center
01:07PM 58.0667 -58.6333 215° Southwest 450 518 37,000  Level Gander Center
01:08PM 57.9667 -58.7667 215° Southwest 450 518 37,000  Level Gander Center
01:09PM 57.8667 -58.9000 215° Southwest 440 506 37,000  Level Gander Center
01:10PM 57.7500 -59.0333 211° Southwest 450 518 37,000  Level Gander Center
01:11PM 57.6500 -59.1667 216° Southwest 450 518 37,000  Level Gander Center
01:12PM 57.5333 -59.2667 205° Southwest 450 518 37,000  Level Gander Center
01:13PM 57.4333 -59.4000 216° Southwest 450 518 37,000  Level Gander Center
01:14PM 57.3167 -59.5167 208° Southwest 450 518 37,000  Level Gander Center
01:15PM 57.2333 -59.6500 221° Southwest 450 518 37,000  Level Gander Center
01:16PM 57.1333 -59.7833 216° Southwest 450 518 37,000  Level Gander Center
01:17PM 57.0167 -59.8667 201° Southwest 450 518 37,000  Level Gander Center
01:18PM 56.9167 -60.0333 222° Southwest 430 495 37,000  Level Gander Center
01:19PM 56.8000 -60.1167 201° Southwest 450 518 37,000  Level Gander Center
01:20PM 56.7000 -60.2500 216° Southwest 450 518 37,000  Level Gander Center
01:21PM 56.6000 -60.3667 213° Southwest 450 518 37,000  Level Gander Center
01:22PM 56.4833 -60.5000 212° Southwest 450 518 37,000  Level Gander Center
01:23PM 56.3667 -60.6167 209° Southwest 450 518 37,000  Level Gander Center
01:24PM 56.2667 -60.7167 209° Southwest 450 518 37,000  Level Gander Center
01:25PM 56.1500 -60.8333 209° Southwest 450 518 37,000  Level Gander Center
01:26PM 56.0500 -60.9500 213° Southwest 450 518 37,000  Level Gander Center
01:27PM 55.9500 -61.0667 213° Southwest 450 518 37,000  Level Gander Center
01:28PM 55.8333 -61.2000 213° Southwest 450 518 37,000  Level Gander Center
01:29PM 55.7167 -61.3167 209° Southwest 450 518 37,000  Level Gander Center
01:30PM 55.6167 -61.4000 205° Southwest 450 518 37,000  Level Gander Center
01:31PM 55.5000 -61.5167 210° Southwest 450 518 37,000  Level Gander Center
01:32PM 55.4000 -61.6333 214° Southwest 450 518 37,000  Level Gander Center
01:33PM 55.2833 -61.7500 210° Southwest 460 529 37,000  Level Gander Center
01:34PM 55.1833 -61.8667 214° Southwest 450 518 37,000  Level Gander Center
01:35PM 55.0833 -61.9833 214° Southwest 460 529 37,000  Level Gander Center
01:36PM 54.9667 -62.1000 210° Southwest 460 529 37,000  Level Gander Center
01:37PM 54.8500 -62.1833 202° Southwest 460 529 37,000  Level Gander Center
01:38PM 54.7500 -62.3000 214° Southwest 460 529 37,000  Level Gander Center
01:39PM 54.6333 -62.4000 206° Southwest 460 529 37,000  Level Gander Center
01:40PM 54.5167 -62.5167 210° Southwest 460 529 37,000 -360 Level Gander Center
01:41PM 54.4000 -62.6333 210° Southwest 460 529 36,300 -540 Descending Gander Center
01:42PM 54.3000 -62.7500 214° Southwest 460 529 36,000 -180 Descending Gander Center
01:43PM 54.1833 -62.8500 207° Southwest 450 518 36,000  Level Gander Center
01:44PM 54.0833 -62.9333 206° Southwest 450 518 36,000  Level Gander Center
01:45PM 53.9667 -63.0500 210° Southwest 450 518 36,000  Level Gander Center
01:46PM 53.8667 -63.1500 211° Southwest 450 518 36,000  Level Gander Center
01:47PM 53.7667 -63.2667 215° Southwest 450 518 36,000  Level Gander Center
01:48PM 53.6500 -63.3333 199° South 450 518 36,000  Level Gander Center
01:49PM 53.5500 -63.4500 215° Southwest 450 518 36,000  Level Gander Center
01:50PM 53.4167 -63.5500 204° Southwest 460 529 36,000  Level Gander Center
01:51PM 53.3167 -63.6667 215° Southwest 450 518 36,000  Level Gander Center
01:52PM 53.2000 -63.7667 207° Southwest 450 518 36,000  Level Gander Center
01:53PM 53.1000 -63.8500 207° Southwest 450 518 36,000  Level Gander Center
01:54PM 52.9833 -63.9500 207° Southwest 450 518 36,000  Level Gander Center
01:55PM 52.8833 -64.0500 211° Southwest 450 518 36,000  Level Gander Center
01:56PM 52.7667 -64.1500 207° Southwest 450 518 36,000  Level Gander Center
01:57PM 52.6500 -64.2667 211° Southwest 450 518 36,000  Level Gander Center
01:59PM 52.4333 -64.4333 205° Southwest 450 518 36,000  Level Gander Center
02:00PM 52.3333 -64.5333 211° Southwest 460 529 36,000  Level Gander Center
02:02PM 52.1167 -64.7333 210° Southwest 460 529 36,000  Level Gander Center
02:03PM 51.9833 -64.8333 205° Southwest 460 529 36,000  Level Gander Center
02:04PM 51.8667 -64.9167 204° Southwest 460 529 36,000  Level Gander Center
02:05PM 51.7667 -65.0333 216° Southwest 460 529 36,000  Level Gander Center
02:06PM 51.6500 -65.1167 204° Southwest 460 529 36,000  Level Gander Center
02:07PM 51.5500 -65.2167 212° Southwest 450 518 36,000  Level Gander Center
02:08PM 51.4167 -65.3000 201° Southwest 450 518 36,000  Level Gander Center
02:09PM 51.3167 -65.4000 212° Southwest 450 518 36,000  Level Gander Center
02:10PM 51.2000 -65.5000 208° Southwest 450 518 36,000  Level Gander Center
02:11PM 51.1000 -65.5667 203° Southwest 440 506 36,000  Level Gander Center
02:12PM 50.9667 -65.6667 205° Southwest 440 506 36,000  Level Gander Center
02:13PM 50.8667 -65.7667 212° Southwest 440 506 36,000  Level Gander Center
02:14PM 50.7667 -65.8333 203° Southwest 440 506 36,000  Level Gander Center
02:15PM 50.6667 -65.9333 212° Southwest 440 506 36,000  Level Gander Center
02:16PM 50.5333 -66.0167 202° Southwest 440 506 36,000  Level Gander Center
02:17PM 50.4333 -66.1167 213° Southwest 440 506 36,000  Level Gander Center
02:18PM 50.3333 -66.1833 203° Southwest 440 506 36,000  Level Gander Center
02:19PM 50.2167 -66.2667 205° Southwest 440 506 36,000  Level Gander Center
02:20PM 50.1000 -66.3333 200° South 460 529 36,000  Level Gander Center
02:21PM 49.9833 -66.4000 200° South 460 529 36,000  Level Gander Center
02:22PM 49.8500 -66.4667 198° South 460 529 36,000  Level Gander Center
02:23PM 49.7500 -66.5333 203° Southwest 450 518 36,000  Level Gander Center
02:24PM 49.6167 -66.6000 198° South 450 518 36,000  Level Gander Center
02:25PM 49.5000 -66.6667 200° South 450 518 36,000  Level Gander Center
02:26PM 49.3833 -66.7333 200° South 450 518 36,000  Level Gander Center
02:27PM 49.2667 -66.8167 205° Southwest 450 518 36,000  Level Gander Center
02:28PM 49.1500 -66.8500 191° South 450 518 36,000  Level Gander Center
02:29PM 49.0333 -66.9500 209° Southwest 450 518 36,000  Level Gander Center
02:30PM 48.9167 -67.0167 201° Southwest 450 518 36,000  Level Gander Center
02:31PM 48.7833 -67.0667 194° South 450 518 36,000  Level Gander Center
02:37PM 48.0662 -67.4448 199° South 451 519 36,000  Level FlightAware ADS-B (CYSG)
02:38PM 48.0067 -67.4754 199° South 449 517 36,000  Level FlightAware ADS-B (CYSG)
02:38PM 47.9343 -67.5126 199° South 448 516 36,000  Level FlightAware ADS-B (CYSG)
02:39PM 47.8429 -67.5595 199° South 450 518 36,000  Level FlightAware ADS-B (CYSG)
02:41PM 47.5754 -67.6956 199° South 444 511 36,000  Level FlightAware ADS-B (CYSG)
02:42PM 47.5373 -67.7149 199° South 444 511 36,000  Level FlightAware ADS-B (CYSG)
02:43PM 47.4155 -67.7763 199° South 445 512 36,000  Level FlightAware ADS-B (CYSG)
02:43PM 47.3515 -67.8084 199° South 446 513 36,000  Level FlightAware ADS-B (CYSG)
02:44PM 47.2923 -67.8380 199° South 446 513 36,000  Level FlightAware ADS-B (CYSG)
02:44PM 47.2187 -67.8749 199° South 447 514 36,000  Level FlightAware ADS-B (CYSG)
02:45PM 47.1490 -67.9097 199° South 448 516 36,000  Level FlightAware ADS-B (CYSG)
02:46PM 47.0164 -67.9754 199° South 451 519 36,000  Level FlightAware ADS-B (CYSG)
02:47PM 46.9137 -68.0261 199° South 452 520 36,000  Level FlightAware ADS-B (CYSG)
02:48PM 46.8169 -68.0736 199° South 453 521 36,000  Level FlightAware ADS-B (CYSG)
02:48PM 46.7376 -68.1117 197° South 452 520 36,000  Level FlightAware ADS-B (CYSG)
02:49PM 46.6639 -68.1415 195° South 454 522 36,000  Level FlightAware ADS-B (CYSG)
02:50PM 46.5968 -68.1686 196° South 451 519 36,000  Level FlightAware ADS-B (CYSG)
02:50PM 46.5344 -68.1944 196° South 451 519 36,000  Level FlightAware ADS-B (CYSG)
02:51PM 46.4525 -68.2283 196° South 451 519 36,000  Level FlightAware ADS-B (CYSG)
02:51PM 46.3991 -68.2504 196° South 449 517 36,000  Level FlightAware ADS-B (CYSG)
02:52PM 46.2931 -68.2940 196° South 448 516 36,000  Level FlightAware ADS-B (CYSG)
02:53PM 46.2310 -68.3195 196° South 449 517 36,000  Level FlightAware ADS-B (CYSG)
02:53PM 46.1342 -68.3591 196° South 447 514 36,000  Level FlightAware ADS-B (CYSG)
02:54PM 46.0769 -68.3824 196° South 448 516 36,000  Level FlightAware ADS-B (CYSG)
02:55PM 45.9890 -68.4182 196° South 448 516 36,000  Level FlightAware ADS-B (CYSG)
02:55PM 45.9294 -68.4423 196° South 449 517 36,000  Level FlightAware ADS-B (CYSG)
02:56PM 45.8425 -68.4775 196° South 450 518 36,000  Level FlightAware ADS-B (CYSG)
02:56PM 45.7652 -68.5087 196° South 451 519 36,000  Level FlightAware ADS-B (CYSG)
02:57PM 45.6989 -68.5353 196° South 452 520 36,000  Level FlightAware ADS-B (CYSG)
02:58PM 45.6370 -68.5602 196° South 453 521 36,000  Level FlightAware ADS-B (CYSG)
02:58PM 45.5511 -68.5945 196° South 454 522 36,000  Level FlightAware ADS-B (CYSG)
02:59PM 45.4893 -68.6192 196° South 453 521 36,000  Level FlightAware ADS-B (CYSG)
02:59PM 45.4266 -68.6441 196° South 453 521 36,000  Level FlightAware ADS-B (CYSG)
03:00PM 45.3661 -68.6682 196° South 452 520 36,000  Level FlightAware ADS-B (CYSG)
03:00PM 45.3058 -68.6920 196° South 451 519 36,000  Level FlightAware ADS-B (CYSG)
03:01PM 45.2237 -68.7245 196° South 450 518 36,000  Level FlightAware ADS-B (CYSG)
03:01PM 45.1592 -68.7499 196° South 450 518 36,000  Level FlightAware ADS-B (CYSG)
03:02PM 45.0885 -68.7777 196° South 447 514 36,000  Level FlightAware ADS-B (KBGR)
03:03PM 45.0244 -68.8029 196° South 446 513 36,000  Level FlightAware ADS-B (KBGR)
03:03PM 44.9686 -68.8246 196° South 444 511 36,000  Level FlightAware ADS-B (KBGR)
03:04PM 44.8855 -68.8571 196° South 444 511 36,000  Level FlightAware ADS-B (CYSG)
03:04PM 44.8379 -68.8788 201° Southwest 437 503 36,000  Level FlightAware ADS-B (KBGR)
03:05PM 44.7633 -68.9265 207° Southwest 430 495 36,000  Level FlightAware ADS-B (CYSG)
03:05PM 44.7145 -68.9606 206° Southwest 430 495 36,000  Level FlightAware ADS-B (CYSG)
03:06PM 44.6537 -69.0025 206° Southwest 428 493 36,000  Level FlightAware ADS-B (CYSG)
03:06PM 44.6013 -69.0382 206° Southwest 429 494 36,000  Level FlightAware ADS-B (CYSG)
03:07PM 44.5918 -69.0447 206° Southwest 429 494 36,000  Level FlightAware ADS-B (KBGR)
03:08PM 44.5130 -69.0982 206° Southwest 432 497 36,000  Level FlightAware ADS-B (CYSG)
03:08PM 44.4215 -69.1600 206° Southwest 434 499 36,000  Level FlightAware ADS-B (CYSG)
03:09PM 44.3378 -69.2163 206° Southwest 438 504 36,000  Level FlightAware ADS-B (CYSG)
03:09PM 44.2739 -69.2592 206° Southwest 433 498 36,000  Level FlightAware ADS-B (KASH)
03:10PM 44.2347 -69.2855 206° Southwest 442 509 36,000  Level FlightAware ADS-B (KBGR)
03:11PM 44.1234 -69.3599 206° Southwest 434 499 36,000  Level FlightAware ADS-B (KASH)
03:11PM 44.0544 -69.4059 206° Southwest 434 499 36,000  Level FlightAware ADS-B (KASH)
03:12PM 43.9990 -69.4427 206° Southwest 442 509 36,000  Level FlightAware ADS-B (KASH)
03:12PM 43.9315 -69.4875 206° Southwest 434 499 36,000  Level FlightAware ADS-B (KASH)
03:13PM 43.8605 -69.5343 206° Southwest 434 499 36,000  Level FlightAware ADS-B (KASH)
03:14PM 43.7766 -69.5897 206° Southwest 442 509 36,000  Level FlightAware ADS-B (KASH)
03:15PM 43.7253 -69.6234 205° Southwest 443 510 36,000  Level FlightAware ADS-B (KBOS)
03:15PM 43.6373 -69.6811 205° Southwest 438 504 36,000  Level FlightAware ADS-B (KBOS)
03:15PM 43.6118 -69.6978 206° Southwest 430 495 36,000  Level FlightAware ADS-B (KASH)
03:16PM 43.5865 -69.7143 205° Southwest 436 502 36,000  Level FlightAware ADS-B (KBOS)
03:16PM 43.5072 -69.7661 206° Southwest 438 504 36,000  Level FlightAware ADS-B (KBOS)
03:17PM 43.4234 -69.8143 198° South 437 503 36,000  Level FlightAware ADS-B (KASH)
03:17PM 43.4043 -69.8221 197° South 446 513 36,000  Level FlightAware ADS-B (KBOS)
03:18PM 43.3253 -69.8455 189° South 442 509 36,000  Level FlightAware ADS-B (KASH)
03:18PM 43.2727 -69.8539 186° South 453 521 36,000  Level FlightAware ADS-B (KBOS)
03:19PM 43.2020 -69.8660 187° South 451 519 36,000  Level FlightAware ADS-B (KASH)
03:20PM 43.1256 -69.8782 186° South 448 516 36,000  Level FlightAware ADS-B (KBOS)
03:20PM 43.0492 -69.8895 186° South 440 506 36,000  Level FlightAware ADS-B (KASH)
03:21PM 42.9864 -69.8987 186° South 441 507 36,000  Level FlightAware ADS-B (KASH)
03:21PM 42.8966 -69.9118 186° South 450 518 36,000  Level FlightAware ADS-B (KBOS)
03:22PM 42.8290 -69.9215 186° South 451 519 36,000  Level FlightAware ADS-B (KASH)
03:23PM 42.7504 -69.9328 186° South 450 518 36,000  Level FlightAware ADS-B (KBOS)
03:23PM 42.6742 -69.9438 186° South 441 507 36,000  Level FlightAware ADS-B (KASH)
03:24PM 42.6018 -69.9542 186° South 448 516 36,000  Level FlightAware ADS-B (KBOS)
03:24PM 42.5409 -69.9630 186° South 447 514 36,000  Level FlightAware ADS-B (KBOS)
03:25PM 42.4778 -69.9720 186° South 446 513 36,000  Level FlightAware ADS-B (KBOS)
03:25PM 42.4078 -69.9820 186° South 447 514 36,000  Level FlightAware ADS-B (KBOS)
03:26PM 42.3442 -69.9911 186° South 449 517 36,000  Level FlightAware ADS-B (KBOS)
03:26PM 42.2759 -70.0008 186° South 450 518 36,000  Level FlightAware ADS-B (KBOS)
03:27PM 42.2104 -70.0102 187° South 448 516 36,000  Level FlightAware ADS-B (KBOS)
03:27PM 42.1497 -70.0255 194° South 441 507 36,000  Level FlightAware ADS-B (KBOS)
03:28PM 42.0938 -70.0486 200° South 437 503 36,000  Level FlightAware ADS-B (KBOS)
03:28PM 42.0734 -70.0592 202° Southwest 434 499 36,000  Level FlightAware ADS-B (KBOS)
03:28PM 42.1366 -70.0301 207° Southwest 432 497 36,000  Level FlightAware ADS-B (KOWD)
03:29PM 41.9876 -70.1192 212° Southwest 428 493 36,000  Level FlightAware ADS-B (KBOS)
03:29PM 41.9383 -70.1669 218° Southwest 426 490 36,000  Level FlightAware ADS-B (KASH)
03:30PM 41.8932 -70.2219 223° Southwest 424 488 36,000  Level FlightAware ADS-B (KASH)
03:30PM 41.8503 -70.2840 227° Southwest 423 487 36,000  Level FlightAware ADS-B (KBOS)
03:31PM 41.8364 -70.3040 227° Southwest 423 487 36,000  Level FlightAware ADS-B (KOWD)
03:32PM 41.7568 -70.4193 228° Southwest 425 489 36,000  Level FlightAware ADS-B (ZSSL)
03:32PM 41.7164 -70.4779 228° Southwest 426 490 36,000  Level FlightAware ADS-B (KBOS)
03:33PM 41.6642 -70.5537 227° Southwest 425 489 36,000  Level FlightAware ADS-B (KBOS)
03:33PM 41.6137 -70.6268 227° Southwest 428 493 36,000  Level FlightAware ADS-B (KASH)
03:34PM 41.5569 -70.7088 227° Southwest 429 494 36,000  Level FlightAware ADS-B (KASH)
03:35PM 41.5592 -70.7055 227° Southwest 429 494 36,000  Level FlightAware ADS-B (KOWD)
03:36PM 41.4695 -70.8344 227° Southwest 430 495 36,000  Level FlightAware ADS-B (KOWD)
03:36PM 41.3887 -70.9502 227° Southwest 428 493 36,000  Level FlightAware ADS-B (KASH)
03:37PM 41.3280 -71.0369 227° Southwest 429 494 36,000  Level FlightAware ADS-B (KASH)
03:37PM 41.2899 -71.0950 233° Southwest 423 487 36,000  Level FlightAware ADS-B (KASH)
03:38PM 41.2717 -71.1285 236° Southwest 427 491 36,000  Level FlightAware ADS-B (KASH)
03:38PM 41.2422 -71.1946 243° Southwest 425 489 36,000  Level FlightAware ADS-B (KASH)
03:39PM 41.2175 -71.2695 250° West 424 488 36,000  Level FlightAware ADS-B (KASH)
03:39PM 41.1978 -71.3419 250° West 424 488 36,000  Level FlightAware ADS-B (KASH)
03:40PM 41.1693 -71.4435 250° West 424 488 36,000  Level FlightAware ADS-B (KASH)
03:41PM 41.1232 -71.5840 231° Southwest 425 489 36,000  Level FlightAware ADS-B (ZSSL)
03:41PM 41.1056 -71.6097 226° Southwest 422 486 36,000  Level FlightAware ADS-B (KASH)
03:42PM 41.0350 -71.7041 226° Southwest 427 491 36,000  Level FlightAware ADS-B
03:43PM 40.9825 -71.7711 226° Southwest 428 493 36,000  Level Washington Center
03:43PM 40.9300 -71.8447 227° Southwest 425 489 36,000  Level Boston Center
03:44PM 40.8411 -71.9603 225° Southwest 424 488 36,000  Level Boston Center
03:45PM 40.7589 -72.0703 225° Southwest 422 486 36,000  Level Boston Center
03:47PM 40.6797 -72.1772 226° Southwest 423 487 36,000  Level Boston Center
03:48PM 40.5981 -72.2847 225° Southwest 421 484 36,000  Level Boston Center
03:49PM 40.4986 -72.4156 225° Southwest 420 483 36,000  Level Boston Center
03:50PM 40.4158 -72.5244 225° Southwest 420 483 36,000  Level Boston Center
03:51PM 40.3331 -72.6331 225° Southwest 421 484 36,000  Level Boston Center
03:53PM 40.1711 -72.8444 225° Southwest 420 483 36,000  Level Boston Center
03:54PM 40.0875 -72.9514 224° Southwest 420 483 36,000  Level Boston Center
03:55PM 40.0050 -73.0594 225° Southwest 420 483 36,000  Level Boston Center
03:56PM 39.9214 -73.1658 224° Southwest 419 482 36,000  Level Boston Center
04:03PM 39.2695 -73.9042 214° Southwest 423 487 36,000  Level FlightAware ADS-B (KPHL)
04:03PM 39.2312 -73.9377 214° Southwest 423 487 36,000  Level FlightAware ADS-B (KPHL)
04:04PM 39.1705 -73.9907 214° Southwest 422 486 36,000  Level FlightAware ADS-B (KPHL)
04:05PM 39.0809 -74.0685 214° Southwest 419 482 36,000  Level FlightAware ADS-B (KPHL)
04:05PM 39.0290 -74.1136 214° Southwest 419 482 36,000  Level FlightAware ADS-B (KPHL)
04:06PM 39.0119 -74.1285 214° Southwest 420 483 36,000  Level FlightAware ADS-B (KPHL)
04:09PM 38.6168 -74.4684 215° Southwest 413 475 36,000  Level FlightAware ADS-B (KWWD)
04:10PM 38.5342 -74.5389 214° Southwest 424 488 36,000  Level FlightAware ADS-B (KWWD)
04:12PM 38.3413 -74.7028 214° Southwest 426 490 36,000  Level FlightAware ADS-B (KWWD)
04:13PM 38.3314 -74.7092 214° Southwest 423 487 36,000  Level Washington Center
04:14PM 38.2325 -74.7919 213° Southwest 425 489 36,000  Level Washington Center
04:15PM 38.1236 -74.8853 214° Southwest 426 490 36,000  Level Washington Center
04:16PM 38.0244 -74.9683 213° Southwest 427 491 36,000  Level Washington Center
04:17PM 37.9242 -75.0489 212° Southwest 427 491 36,000  Level Washington Center
04:18PM 37.8250 -75.1333 214° Southwest 428 493 36,000  Level Washington Center
04:19PM 37.7061 -75.2336 214° Southwest 428 493 36,000  Level Washington Center
04:20PM 37.6050 -75.3169 213° Southwest 429 494 36,000  Level Washington Center
04:21PM 37.5042 -75.3997 213° Southwest 430 495 36,000  Level Washington Center
04:22PM 37.4036 -75.4822 213° Southwest 431 496 36,000  Level Washington Center
04:23PM 37.3033 -75.5653 213° Southwest 431 496 36,000  Level Washington Center
04:24PM 37.2025 -75.6492 214° Southwest 432 497 36,000  Level Washington Center
04:25PM 37.0814 -75.7475 213° Southwest 432 497 36,000  Level Washington Center
04:26PM 36.9797 -75.8303 213° Southwest 433 498 36,000  Level Washington Center
04:27PM 36.8706 -75.9169 212° Southwest 433 498 36,000  Level Washington Center
04:28PM 36.7686 -75.9994 213° Southwest 433 498 36,000  Level Washington Center
04:29PM 36.6636 -76.0842 213° Southwest 438 504 36,000  Level Washington Center
04:30PM 36.5606 -76.1664 213° Southwest 436 502 36,000  Level Washington Center
04:31PM 36.4567 -76.2486 212° Southwest 438 504 36,000  Level Washington Center
04:32PM 36.3528 -76.3314 213° Southwest 441 507 36,000  Level Washington Center
04:33PM 36.2286 -76.4297 213° Southwest 441 507 36,000  Level Washington Center
04:34PM 36.1247 -76.5119 213° Southwest 442 509 36,000  Level Washington Center
04:36PM 36.0194 -76.5931 212° Southwest 442 509 36,000  Level Washington Center
04:37PM 35.9153 -76.6758 213° Southwest 443 510 36,000  Level Washington Center
04:38PM 35.8064 -76.7572 211° Southwest 454 522 36,000 240 Level Washington Center
04:39PM 35.6828 -76.8075 198° South 464 534 36,600 840 Climbing Washington Center
04:40PM 35.5400 -76.8719 200° South 471 542 37,800 660 Climbing Washington Center
04:41PM 35.4128 -76.9283 200° South 479 551 38,000 60 Climbing Washington Center
04:42PM 35.2867 -76.9844 200° South 481 554 38,000  Level Washington Center
04:43PM 35.1606 -77.0389 199° South 480 552 38,000  Level Washington Center
04:44PM 35.0258 -77.0983 200° South 480 552 38,000  Level Washington Center
04:45PM 34.8831 -77.1608 200° South 480 552 38,000  Level Washington Center
04:46PM 34.7475 -77.2194 200° South 481 554 38,000  Level Washington Center
04:47PM 34.6211 -77.2736 199° South 481 554 38,000  Level Washington Center
04:48PM 34.4950 -77.3289 200° South 481 554 38,000  Level Washington Center
04:49PM 34.3683 -77.3819 199° South 481 554 38,000  Level Washington Center
04:50PM 34.2425 -77.4361 200° South 481 554 38,000  Level Washington Center
04:51PM 34.1169 -77.4900 200° South 477 549 38,000  Level Washington Center
04:52PM 34.0167 -77.5339 200° South 486 559 38,000  Level Jacksonville Center
04:53PM 33.8936 -77.5814 198° South 481 554 38,000  Level Jacksonville Center
04:54PM 33.7708 -77.6361 200° South 475 547 38,000  Level Jacksonville Center
04:55PM 33.6333 -77.6942 199° South 475 547 38,000  Level Jacksonville Center
04:56PM 33.5083 -77.7464 199° South 480 552 38,000  Level Jacksonville Center
04:57PM 33.3808 -77.7986 199° South 480 552 38,000  Level Jacksonville Center
04:58PM 33.2581 -77.8528 200° South 480 552 38,000  Level Jacksonville Center
04:59PM 33.1306 -77.9022 198° South 480 552 38,000  Level Jacksonville Center
05:00PM 33.0053 -77.9539 199° South 480 552 38,000  Level Jacksonville Center
05:01PM 32.8800 -78.0050 199° South 480 552 38,000  Level Jacksonville Center
05:02PM 32.7567 -78.0539 198° South 480 552 38,000  Level Jacksonville Center
05:03PM 32.6333 -78.1072 200° South 480 552 38,000  Level Jacksonville Center
05:04PM 32.5103 -78.1606 200° South 480 552 38,000  Level Jacksonville Center
05:05PM 32.3886 -78.2061 198° South 480 552 38,000  Level Jacksonville Center
05:06PM 32.2758 -78.2564 201° Southwest 480 552 38,000  Level Jacksonville Center
05:07PM 32.1544 -78.3067 199° South 480 552 38,000  Level Jacksonville Center
05:08PM 32.0311 -78.3569 199° South 474 545 38,000  Level Jacksonville Center
05:09PM 31.9075 -78.4069 199° South 474 545 38,000  Level Jacksonville Center
05:10PM 31.7842 -78.4594 200° South 474 545 38,000  Level Jacksonville Center
05:11PM 31.6586 -78.5069 198° South 479 551 38,000  Level Jacksonville Center
05:12PM 31.5369 -78.5564 199° South 473 544 38,000  Level Jacksonville Center
05:13PM 31.4156 -78.6058 199° South 473 544 38,000  Level Jacksonville Center
05:14PM 31.2939 -78.6528 198° South 473 544 38,000  Level Jacksonville Center
05:15PM 31.1706 -78.7044 200° South 473 544 38,000  Level Jacksonville Center
05:16PM 31.0467 -78.7511 198° South 473 544 38,000  Level Jacksonville Center
05:17PM 30.9253 -78.8000 199° South 468 539 38,000  Level Jacksonville Center
05:18PM 30.8078 -78.8486 200° South 468 539 38,000  Level Jacksonville Center
05:19PM 30.6797 -78.8978 198° South 468 539 38,000  Level Jacksonville Center
05:20PM 30.5519 -78.9464 198° South 480 552 38,000  Level Jacksonville Center
05:20PM 30.4625 -78.9803 198° South 480 552 38,000  Level Miami Center
05:21PM 30.3325 -79.0353 200° South 486 559 38,000  Level Miami Center
05:22PM 30.2108 -79.0881 201° Southwest 481 554 38,000  Level Miami Center
05:23PM 30.0806 -79.1428 200° South 481 554 38,000  Level Miami Center
05:32PM 28.9552 -79.5993 198° South 488 562 38,000  Level FlightAware ADS-B (KMCO)
05:34PM 28.7620 -79.6701 198° South 485 558 38,000  Level FlightAware ADS-B (KMCO)
05:35PM 28.6154 -79.7237 198° South 483 556 38,000  Level FlightAware ADS-B (KMCO)
05:36PM 28.4896 -79.7695 198° South 483 556 38,000  Level FlightAware ADS-B (KMCO)
05:36PM 28.4264 -79.7925 198° South 483 556 38,000  Level FlightAware ADS-B (KMCO)
05:37PM 28.3586 -79.8171 198° South 482 555 38,000  Level FlightAware ADS-B (KMCO)
05:37PM 28.2947 -79.8402 198° South 482 555 38,000  Level FlightAware ADS-B (KMCO)
05:38PM 28.2241 -79.8658 198° South 481 554 38,000  Level FlightAware ADS-B (KMCO)
05:38PM 28.1725 -79.8844 198° South 480 552 38,000  Level FlightAware ADS-B (KMCO)
05:39PM 28.0875 -79.9151 198° South 481 554 38,000  Level FlightAware ADS-B (KMCO)
05:40PM 27.9845 -79.9522 198° South 479 551 38,000  Level FlightAware ADS-B (KMCO)
05:41PM 27.9053 -79.9807 198° South 473 544 38,000  Level FlightAware ADS-B (KMCO)
05:41PM 27.8100 -80.0149 198° South 473 544 38,000  Level FlightAware ADS-B (KMCO)
05:42PM 27.7394 -80.0402 198° South 471 542 38,000  Level FlightAware ADS-B (KMCO)
05:42PM 27.6565 -80.0699 198° South 471 542 38,000  Level FlightAware ADS-B (KMCO)
05:43PM 27.5812 -80.0969 198° South 470 541 38,000  Level FlightAware ADS-B (KMCO)
05:44PM 27.4895 -80.1297 198° South 470 541 38,000  Level FlightAware ADS-B (KMCO)
05:44PM 27.4284 -80.1514 198° South 470 541 38,000  Level FlightAware ADS-B (KMCO)
05:45PM 27.3611 -80.1754 198° South 470 541 38,000  Level FlightAware ADS-B (KMCO)
05:46PM 27.2733 -80.2066 198° South 471 542 38,000  Level FlightAware ADS-B (KMCO)
05:46PM 27.2582 -80.2119 198° South 471 542 38,000  Level FlightAware ADS-B (RJTF)
05:47PM 27.1163 -80.2622 198° South 470 541 38,000  Level FlightAware ADS-B (KMCO)
05:48PM 27.0164 -80.2977 198° South 470 541 38,000 -120 Level FlightAware ADS-B (KMCO)
05:49PM 26.8049 -80.3722 198° South 468 539 37,800 -360 Descending FlightAware ADS-B (KMCO)
05:50PM 26.7425 -80.3942 198° South 471 542 37,300 -780 Descending FlightAware ADS-B (KMCO)
05:52PM 26.5184 -80.4727 198° South 469 540 36,000 -420 Descending FlightAware ADS-B (RJTF)
05:53PM 26.3862 -80.5191 197° South 471 542 36,000  Level FlightAware ADS-B (RJTF)
05:56PM 26.0318 -80.6425 197° South 464 534 36,000 -480 Level FlightAware ADS-B (RJTF)
06:12PM 24.4481 -82.0917 214° Southwest 438 504 27,600 -540 Descending Miami Center
06:13PM 24.2862 -81.4542 214° Southwest  Level Estimated
06:13PM 24.3636 -82.1747 222° Southwest 424 488 26,600  Level Miami Center
06:14PM 24.1915 -81.5248 214° Southwest  Level Estimated
06:14PM 24.2772 -82.2578 221° Southwest 414 476 25,600  Level Miami Center
06:15PM 24.0968 -81.5952 214° Southwest  Level Estimated
06:15PM 24.1969 -82.3383 222° Southwest 409 471 24,600  Level Miami Center
06:16PM 24.0020 -81.6655 214° Southwest  Level Estimated
06:16PM 24.1147 -82.4167 221° Southwest 404 465 23,600  Level Miami Center
06:17PM 23.9072 -81.7357 214° Southwest  Level Estimated
06:17PM 24.0303 -82.4947 220° Southwest 399 459 22,200  Level Miami Center
06:18PM 23.8123 -81.8058 214° Southwest  Level Estimated
06:19PM 23.7174 -81.8758 214° Southwest  Level Estimated
06:20PM 23.6225 -81.9457 214° Southwest  Level Estimated
06:21PM 23.5276 -82.0155 214° Southwest  Level Estimated
06:22PM 23.4326 -82.0852 214° Southwest  Level Estimated
06:23PM 23.4785 -82.4480 172° South  Level FlightAware Approximate
06:30PM 22.9891 -82.4091 180° South  Level Estimated
06:31PM 22.9891 -82.4091 180° South  Level Estimated
06:32PM 22.9891 -82.4091 180° South  Level Estimated
06:33PM 22.9891 -82.4091 180° South  Level Estimated
06:34PM 22.9891 -82.4091 180° South  Level Estimated
06:35PM 22.9891 -82.4091 180° South  Level Estimated
06:36PM 22.9891 -82.4091 180° South  Level Estimated
06:37PM 22.9891 -82.4091 180° South  Level Estimated
06:38PM 22.9891 -82.4091 180° South  Level Estimated
06:39PM 22.9891 -82.4091 180° South  Level Estimated
06:40PM 22.9891 -82.4091 180° South  Level Estimated
06:41PM 22.9891 -82.4091 180° South  Level Estimated
06:42PM 22.9891 -82.4091 180° South  Level Estimated
06:43PM 22.9891 -82.4091 180° South  Level Estimated
06:44PM 22.9891 -82.4091 180° South  Level Estimated
06:45PM 22.9891 -82.4091 180° South  Level Estimated
06:46PM 22.9891 -82.4091 180° South  Level Estimated
06:47PM 22.9891 -82.4091 180° South  Level Estimated
06:48PM 22.9891 -82.4091 180° South  Level Estimated
06:49PM 22.9891 -82.4091 180° South  Level Estimated